sensor_id;sensor_type;location;lat;lon;timestamp;pressure;altitude;pressure_sealevel;temperature;humidity
21821;BME280;11073;48.586;12.066;2022-09-12T00:01:35;96660.38;;;15.28;69.89
21821;BME280;11073;48.586;12.066;2022-09-12T00:04:04;96661.66;;;15.21;69.74
21821;BME280;11073;48.586;12.066;2022-09-12T00:06:34;96669.63;;;15.22;70.00
21821;BME280;11073;48.586;12.066;2022-09-12T00:09:06;96657.56;;;15.18;69.71
21821;BME280;11073;48.586;12.066;2022-09-12T00:11:35;96650.16;;;15.13;69.67
21821;BME280;11073;48.586;12.066;2022-09-12T00:14:07;96646.94;;;15.16;69.67
21821;BME280;11073;48.586;12.066;2022-09-12T00:16:37;96656.19;;;15.15;69.23
21821;BME280;11073;48.586;12.066;2022-09-12T00:19:06;96647.97;;;15.10;69.13
21821;BME280;11073;48.586;12.066;2022-09-12T00:21:38;96653.44;;;15.10;68.96
21821;BME280;11073;48.586;12.066;2022-09-12T00:24:08;96651.47;;;15.06;68.91
21821;BME280;11073;48.586;12.066;2022-09-12T00:26:36;96656.38;;;15.04;69.06
21821;BME280;11073;48.586;12.066;2022-09-12T00:29:07;96650.09;;;15.03;68.85
21821;BME280;11073;48.586;12.066;2022-09-12T00:31:36;96657.41;;;14.98;68.87
21821;BME280;11073;48.586;12.066;2022-09-12T00:34:04;96644.31;;;14.95;68.77
21821;BME280;11073;48.586;12.066;2022-09-12T00:36:33;96653.59;;;14.94;68.82
21821;BME280;11073;48.586;12.066;2022-09-12T00:39:02;96639.38;;;14.86;68.92
21821;BME280;11073;48.586;12.066;2022-09-12T00:41:33;96644.84;;;14.92;68.87
21821;BME280;11073;48.586;12.066;2022-09-12T00:44:47;96644.63;;;14.98;68.91
21821;BME280;11073;48.586;12.066;2022-09-12T00:47:20;96649.78;;;14.95;69.12
21821;BME280;11073;48.586;12.066;2022-09-12T00:49:54;96636.41;;;14.93;68.97
21821;BME280;11073;48.586;12.066;2022-09-12T00:52:28;96630.69;;;14.95;69.02
21821;BME280;11073;48.586;12.066;2022-09-12T00:55:02;96629.56;;;14.90;68.81
21821;BME280;11073;48.586;12.066;2022-09-12T00:57:35;96638.22;;;14.82;68.89
21821;BME280;11073;48.586;12.066;2022-09-12T01:00:08;96621.59;;;14.79;68.85
21821;BME280;11073;48.586;12.066;2022-09-12T01:02:42;96627.81;;;14.74;68.96
21821;BME280;11073;48.586;12.066;2022-09-12T01:05:12;96627.75;;;14.69;68.90
21821;BME280;11073;48.586;12.066;2022-09-12T01:07:41;96617.34;;;14.61;68.80
21821;BME280;11073;48.586;12.066;2022-09-12T01:10:11;96617.41;;;14.66;68.70
21821;BME280;11073;48.586;12.066;2022-09-12T01:12:41;96620.59;;;14.58;68.81
21821;BME280;11073;48.586;12.066;2022-09-12T01:15:12;96620.88;;;14.56;68.58
21821;BME280;11073;48.586;12.066;2022-09-12T01:17:54;96618.09;;;14.51;68.46
21821;BME280;11073;48.586;12.066;2022-09-12T01:20:36;96622.16;;;14.49;68.70
21821;BME280;11073;48.586;12.066;2022-09-12T01:23:38;96618.63;;;14.53;68.96
21821;BME280;11073;48.586;12.066;2022-09-12T01:26:26;96620.25;;;14.49;68.83
21821;BME280;11073;48.586;12.066;2022-09-12T01:29:13;96607.69;;;14.48;68.99
21821;BME280;11073;48.586;12.066;2022-09-12T01:31:52;96611.44;;;14.42;69.20
21821;BME280;11073;48.586;12.066;2022-09-12T01:34:27;96608.72;;;14.42;69.33
21821;BME280;11073;48.586;12.066;2022-09-12T01:37:04;96614.16;;;14.42;69.61
21821;BME280;11073;48.586;12.066;2022-09-12T01:39:44;96605.69;;;14.39;69.27
21821;BME280;11073;48.586;12.066;2022-09-12T01:42:22;96610.56;;;14.37;69.39
21821;BME280;11073;48.586;12.066;2022-09-12T01:45:00;96614.31;;;14.30;69.08
21821;BME280;11073;48.586;12.066;2022-09-12T01:47:38;96604.44;;;14.24;69.06
21821;BME280;11073;48.586;12.066;2022-09-12T01:50:09;96611.88;;;14.29;69.01
21821;BME280;11073;48.586;12.066;2022-09-12T01:52:44;96601.94;;;14.18;69.11
21821;BME280;11073;48.586;12.066;2022-09-12T01:55:18;96604.88;;;14.11;68.84
21821;BME280;11073;48.586;12.066;2022-09-12T01:57:53;96606.47;;;14.07;69.22
21821;BME280;11073;48.586;12.066;2022-09-12T02:00:22;96609.19;;;14.07;69.33
21821;BME280;11073;48.586;12.066;2022-09-12T02:02:56;96602.97;;;14.12;69.58
21821;BME280;11073;48.586;12.066;2022-09-12T02:05:32;96601.38;;;14.16;69.67
21821;BME280;11073;48.586;12.066;2022-09-12T02:08:05;96609.03;;;14.19;69.44
21821;BME280;11073;48.586;12.066;2022-09-12T02:10:40;96602.19;;;14.16;69.50
21821;BME280;11073;48.586;12.066;2022-09-12T02:13:14;96594.56;;;14.13;69.58
21821;BME280;11073;48.586;12.066;2022-09-12T02:15:48;96598.94;;;14.19;69.39
21821;BME280;11073;48.586;12.066;2022-09-12T02:18:19;96591.31;;;14.16;69.25
21821;BME280;11073;48.586;12.066;2022-09-12T02:20:50;96594.66;;;14.23;69.79
21821;BME280;11073;48.586;12.066;2022-09-12T02:23:21;96583.75;;;14.23;69.52
21821;BME280;11073;48.586;12.066;2022-09-12T02:25:53;96585.94;;;14.21;69.87
21821;BME280;11073;48.586;12.066;2022-09-12T02:28:26;96582.13;;;14.22;69.93
21821;BME280;11073;48.586;12.066;2022-09-12T02:31:01;96581.03;;;14.23;70.09
21821;BME280;11073;48.586;12.066;2022-09-12T02:33:39;96581.28;;;14.22;70.17
21821;BME280;11073;48.586;12.066;2022-09-12T02:36:14;96579.13;;;14.24;70.38
21821;BME280;11073;48.586;12.066;2022-09-12T02:38:50;96576.66;;;14.22;70.67
21821;BME280;11073;48.586;12.066;2022-09-12T02:41:19;96580.22;;;14.23;70.85
21821;BME280;11073;48.586;12.066;2022-09-12T02:43:50;96577.75;;;14.21;70.86
21821;BME280;11073;48.586;12.066;2022-09-12T02:46:22;96577.50;;;14.23;71.30
21821;BME280;11073;48.586;12.066;2022-09-12T02:48:54;96572.31;;;14.21;71.57
21821;BME280;11073;48.586;12.066;2022-09-12T02:51:24;96570.13;;;14.23;71.83
21821;BME280;11073;48.586;12.066;2022-09-12T02:53:54;96567.69;;;14.22;71.58
21821;BME280;11073;48.586;12.066;2022-09-12T02:56:26;96555.38;;;14.19;71.92
21821;BME280;11073;48.586;12.066;2022-09-12T02:58:59;96561.88;;;14.13;71.81
21821;BME280;11073;48.586;12.066;2022-09-12T03:01:42;96565.16;;;14.15;71.90
21821;BME280;11073;48.586;12.066;2022-09-12T03:04:33;96560.81;;;14.14;72.17
21821;BME280;11073;48.586;12.066;2022-09-12T03:07:11;96557.75;;;14.05;72.08
21821;BME280;11073;48.586;12.066;2022-09-12T03:09:45;96556.06;;;14.04;72.38
21821;BME280;11073;48.586;12.066;2022-09-12T03:12:25;96555.50;;;14.02;72.36
21821;BME280;11073;48.586;12.066;2022-09-12T03:15:08;96556.84;;;14.00;71.90
21821;BME280;11073;48.586;12.066;2022-09-12T03:17:45;96558.44;;;13.96;72.01
21821;BME280;11073;48.586;12.066;2022-09-12T03:20:30;96554.06;;;13.95;72.11
21821;BME280;11073;48.586;12.066;2022-09-12T03:23:04;96560.88;;;13.92;71.95
21821;BME280;11073;48.586;12.066;2022-09-12T03:25:42;96549.31;;;13.80;71.93
21821;BME280;11073;48.586;12.066;2022-09-12T03:28:14;96552.28;;;13.78;72.12
21821;BME280;11073;48.586;12.066;2022-09-12T03:30:46;96560.50;;;13.84;72.00
21821;BME280;11073;48.586;12.066;2022-09-12T03:33:16;96568.16;;;13.87;71.71
21821;BME280;11073;48.586;12.066;2022-09-12T03:35:47;96561.88;;;13.86;71.65
21821;BME280;11073;48.586;12.066;2022-09-12T03:38:17;96558.81;;;13.77;71.60
21821;BME280;11073;48.586;12.066;2022-09-12T03:40:46;96563.66;;;13.75;71.57
21821;BME280;11073;48.586;12.066;2022-09-12T03:43:20;96558.47;;;13.74;71.59
21821;BME280;11073;48.586;12.066;2022-09-12T03:45:50;96559.28;;;13.69;71.59
21821;BME280;11073;48.586;12.066;2022-09-12T03:48:20;96562.47;;;13.66;71.38
21821;BME280;11073;48.586;12.066;2022-09-12T03:50:50;96563.56;;;13.65;71.75
21821;BME280;11073;48.586;12.066;2022-09-12T03:53:18;96565.72;;;13.63;71.54
21821;BME280;11073;48.586;12.066;2022-09-12T03:55:47;96556.97;;;13.61;71.48
21821;BME280;11073;48.586;12.066;2022-09-12T03:58:15;96557.50;;;13.58;71.48
21821;BME280;11073;48.586;12.066;2022-09-12T04:00:44;96555.34;;;13.60;71.64
21821;BME280;11073;48.586;12.066;2022-09-12T04:03:13;96555.94;;;13.62;71.33
21821;BME280;11073;48.586;12.066;2022-09-12T04:05:42;96557.31;;;13.65;71.28
21821;BME280;11073;48.586;12.066;2022-09-12T04:08:11;96561.59;;;13.61;71.34
21821;BME280;11073;48.586;12.066;2022-09-12T04:10:40;96553.13;;;13.57;71.20
21821;BME280;11073;48.586;12.066;2022-09-12T04:13:08;96548.00;;;13.61;71.25
21821;BME280;11073;48.586;12.066;2022-09-12T04:15:37;96551.78;;;13.60;71.21
21821;BME280;11073;48.586;12.066;2022-09-12T04:18:06;96555.34;;;13.60;71.27
21821;BME280;11073;48.586;12.066;2022-09-12T04:20:35;96559.13;;;13.59;70.86
21821;BME280;11073;48.586;12.066;2022-09-12T04:23:03;96552.88;;;13.59;70.91
21821;BME280;11073;48.586;12.066;2022-09-12T04:25:33;96559.13;;;13.59;71.02
21821;BME280;11073;48.586;12.066;2022-09-12T04:28:02;96556.41;;;13.59;71.13
21821;BME280;11073;48.586;12.066;2022-09-12T04:30:32;96557.19;;;13.55;71.00
21821;BME280;11073;48.586;12.066;2022-09-12T04:33:01;96557.69;;;13.51;71.26
21821;BME280;11073;48.586;12.066;2022-09-12T04:35:34;96560.16;;;13.53;70.97
21821;BME280;11073;48.586;12.066;2022-09-12T04:38:03;96559.06;;;13.54;70.96
21821;BME280;11073;48.586;12.066;2022-09-12T04:40:33;96557.44;;;13.53;71.07
21821;BME280;11073;48.586;12.066;2022-09-12T04:43:02;96550.63;;;13.50;70.83
21821;BME280;11073;48.586;12.066;2022-09-12T04:45:38;96554.41;;;13.49;70.84
21821;BME280;11073;48.586;12.066;2022-09-12T04:48:07;96558.44;;;13.47;71.03
21821;BME280;11073;48.586;12.066;2022-09-12T04:50:36;96551.13;;;13.47;70.79
21821;BME280;11073;48.586;12.066;2022-09-12T04:53:04;96554.09;;;13.46;70.92
21821;BME280;11073;48.586;12.066;2022-09-12T04:55:34;96552.38;;;13.40;71.04
21821;BME280;11073;48.586;12.066;2022-09-12T04:58:03;96554.53;;;13.38;70.78
21821;BME280;11073;48.586;12.066;2022-09-12T05:00:32;96561.88;;;13.37;70.82
21821;BME280;11073;48.586;12.066;2022-09-12T05:03:01;96556.63;;;13.31;70.68
21821;BME280;11073;48.586;12.066;2022-09-12T05:05:30;96558.78;;;13.29;70.87
21821;BME280;11073;48.586;12.066;2022-09-12T05:07:59;96559.28;;;13.26;71.12
21821;BME280;11073;48.586;12.066;2022-09-12T05:10:27;96560.13;;;13.26;71.00
21821;BME280;11073;48.586;12.066;2022-09-12T05:12:57;96558.53;;;13.30;70.81
21821;BME280;11073;48.586;12.066;2022-09-12T05:15:27;96562.88;;;13.31;70.86
21821;BME280;11073;48.586;12.066;2022-09-12T05:17:56;96579.44;;;13.30;70.56
21821;BME280;11073;48.586;12.066;2022-09-12T05:20:25;96568.31;;;13.31;70.39
21821;BME280;11073;48.586;12.066;2022-09-12T05:22:53;96562.94;;;13.36;70.73
21821;BME280;11073;48.586;12.066;2022-09-12T05:25:22;96580.09;;;13.37;70.26
21821;BME280;11073;48.586;12.066;2022-09-12T05:27:51;96581.16;;;13.36;70.20
21821;BME280;11073;48.586;12.066;2022-09-12T05:30:21;96581.97;;;13.36;70.23
21821;BME280;11073;48.586;12.066;2022-09-12T05:32:50;96587.94;;;13.33;70.04
21821;BME280;11073;48.586;12.066;2022-09-12T05:35:18;96585.44;;;13.32;70.16
21821;BME280;11073;48.586;12.066;2022-09-12T05:37:47;96586.25;;;13.32;70.21
21821;BME280;11073;48.586;12.066;2022-09-12T05:40:15;96585.22;;;13.33;70.24
21821;BME280;11073;48.586;12.066;2022-09-12T05:42:45;96587.69;;;13.35;70.02
21821;BME280;11073;48.586;12.066;2022-09-12T05:45:14;96594.75;;;13.36;70.08
21821;BME280;11073;48.586;12.066;2022-09-12T05:47:46;96593.38;;;13.33;70.17
21821;BME280;11073;48.586;12.066;2022-09-12T05:50:15;96592.59;;;13.38;70.01
21821;BME280;11073;48.586;12.066;2022-09-12T05:52:44;96593.22;;;13.45;70.11
21821;BME280;11073;48.586;12.066;2022-09-12T05:55:12;96600.38;;;13.51;70.13
21821;BME280;11073;48.586;12.066;2022-09-12T05:57:42;96606.38;;;13.53;69.92
21821;BME280;11073;48.586;12.066;2022-09-12T06:00:13;96604.25;;;13.55;69.68
21821;BME280;11073;48.586;12.066;2022-09-12T06:02:43;96600.75;;;13.60;69.64
21821;BME280;11073;48.586;12.066;2022-09-12T06:05:13;96596.91;;;13.56;69.45
21821;BME280;11073;48.586;12.066;2022-09-12T06:07:44;96599.31;;;13.52;69.77
21821;BME280;11073;48.586;12.066;2022-09-12T06:10:13;96600.47;;;13.56;69.64
21821;BME280;11073;48.586;12.066;2022-09-12T06:12:42;96595.84;;;13.57;69.68
21821;BME280;11073;48.586;12.066;2022-09-12T06:15:10;96600.75;;;13.60;69.76
21821;BME280;11073;48.586;12.066;2022-09-12T06:17:40;96599.69;;;13.61;69.55
21821;BME280;11073;48.586;12.066;2022-09-12T06:20:08;96597.28;;;13.64;69.95
21821;BME280;11073;48.586;12.066;2022-09-12T06:22:38;96594.84;;;13.63;70.09
21821;BME280;11073;48.586;12.066;2022-09-12T06:25:07;96603.53;;;13.65;70.22
21821;BME280;11073;48.586;12.066;2022-09-12T06:27:36;96608.81;;;13.71;70.36
21821;BME280;11073;48.586;12.066;2022-09-12T06:30:05;96608.56;;;14.00;71.01
21821;BME280;11073;48.586;12.066;2022-09-12T06:32:34;96597.97;;;14.03;70.43
21821;BME280;11073;48.586;12.066;2022-09-12T06:35:03;96605.84;;;14.00;70.35
21821;BME280;11073;48.586;12.066;2022-09-12T06:37:32;96600.41;;;14.00;70.63
21821;BME280;11073;48.586;12.066;2022-09-12T06:40:02;96598.31;;;14.07;70.79
21821;BME280;11073;48.586;12.066;2022-09-12T06:42:31;96600.81;;;14.14;70.95
21821;BME280;11073;48.586;12.066;2022-09-12T06:45:00;96599.00;;;14.24;71.16
21821;BME280;11073;48.586;12.066;2022-09-12T06:47:29;96596.84;;;14.26;71.17
21821;BME280;11073;48.586;12.066;2022-09-12T06:49:57;96601.78;;;14.29;71.42
21821;BME280;11073;48.586;12.066;2022-09-12T06:52:26;96601.84;;;14.34;71.45
21821;BME280;11073;48.586;12.066;2022-09-12T06:54:55;96599.47;;;14.43;71.36
21821;BME280;11073;48.586;12.066;2022-09-12T06:57:25;96596.28;;;14.51;71.25
21821;BME280;11073;48.586;12.066;2022-09-12T06:59:56;96597.72;;;14.59;71.15
21821;BME280;11073;48.586;12.066;2022-09-12T07:02:25;96601.00;;;14.61;71.39
21821;BME280;11073;48.586;12.066;2022-09-12T07:04:54;96600.50;;;14.64;71.29
21821;BME280;11073;48.586;12.066;2022-09-12T07:07:23;96594.81;;;14.71;71.33
21821;BME280;11073;48.586;12.066;2022-09-12T07:09:51;96606.31;;;14.78;71.49
21821;BME280;11073;48.586;12.066;2022-09-12T07:12:20;96598.16;;;14.83;71.73
21821;BME280;11073;48.586;12.066;2022-09-12T07:14:49;96601.81;;;14.94;71.75
21821;BME280;11073;48.586;12.066;2022-09-12T07:17:18;96610.25;;;14.97;71.55
21821;BME280;11073;48.586;12.066;2022-09-12T07:19:46;96609.44;;;14.97;72.04
21821;BME280;11073;48.586;12.066;2022-09-12T07:22:15;96609.75;;;15.00;72.40
21821;BME280;11073;48.586;12.066;2022-09-12T07:24:44;96617.13;;;15.05;72.50
21821;BME280;11073;48.586;12.066;2022-09-12T07:27:14;96613.09;;;15.12;72.66
21821;BME280;11073;48.586;12.066;2022-09-12T07:29:42;96608.53;;;15.23;72.63
21821;BME280;11073;48.586;12.066;2022-09-12T07:32:14;96614.34;;;15.37;72.67
21821;BME280;11073;48.586;12.066;2022-09-12T07:34:44;96612.75;;;15.46;72.86
21821;BME280;11073;48.586;12.066;2022-09-12T07:37:12;96612.50;;;15.53;72.83
21821;BME280;11073;48.586;12.066;2022-09-12T07:39:41;96608.97;;;15.57;72.97
21821;BME280;11073;48.586;12.066;2022-09-12T07:42:09;96610.41;;;15.65;72.96
21821;BME280;11073;48.586;12.066;2022-09-12T07:44:39;96614.78;;;15.71;72.84
21821;BME280;11073;48.586;12.066;2022-09-12T07:47:07;96607.47;;;15.82;72.97
21821;BME280;11073;48.586;12.066;2022-09-12T07:49:36;96604.75;;;15.92;72.82
21821;BME280;11073;48.586;12.066;2022-09-12T07:52:05;96610.53;;;16.06;72.65
21821;BME280;11073;48.586;12.066;2022-09-12T07:54:34;96617.13;;;16.20;72.55
21821;BME280;11073;48.586;12.066;2022-09-12T07:57:03;96622.06;;;16.33;72.31
21821;BME280;11073;48.586;12.066;2022-09-12T07:59:32;96618.81;;;16.46;72.04
21821;BME280;11073;48.586;12.066;2022-09-12T08:02:19;96619.91;;;16.55;71.46
21821;BME280;11073;48.586;12.066;2022-09-12T08:04:50;96625.94;;;16.63;71.44
21821;BME280;11073;48.586;12.066;2022-09-12T08:07:19;96620.75;;;16.71;71.28
21821;BME280;11073;48.586;12.066;2022-09-12T08:09:47;96617.50;;;16.85;70.96
21821;BME280;11073;48.586;12.066;2022-09-12T08:12:16;96620.22;;;16.95;70.61
21821;BME280;11073;48.586;12.066;2022-09-12T08:14:46;96624.59;;;17.11;70.47
21821;BME280;11073;48.586;12.066;2022-09-12T08:17:15;96623.75;;;17.26;70.28
21821;BME280;11073;48.586;12.066;2022-09-12T08:19:44;96626.72;;;17.34;69.31
21821;BME280;11073;48.586;12.066;2022-09-12T08:22:15;96626.16;;;17.43;69.27
21821;BME280;11073;48.586;12.066;2022-09-12T08:24:45;96627.22;;;17.57;68.64
21821;BME280;11073;48.586;12.066;2022-09-12T08:27:14;96629.09;;;17.72;68.07
21821;BME280;11073;48.586;12.066;2022-09-12T08:29:43;96631.25;;;17.85;67.74
21821;BME280;11073;48.586;12.066;2022-09-12T08:32:11;96627.69;;;17.89;67.46
21821;BME280;11073;48.586;12.066;2022-09-12T08:34:40;96624.06;;;18.04;67.24
21821;BME280;11073;48.586;12.066;2022-09-12T08:37:09;96631.59;;;18.23;66.98
21821;BME280;11073;48.586;12.066;2022-09-12T08:39:39;96629.06;;;18.36;66.78
21821;BME280;11073;48.586;12.066;2022-09-12T08:42:09;96627.66;;;18.44;66.41
21821;BME280;11073;48.586;12.066;2022-09-12T08:44:57;96632.56;;;18.47;65.90
21821;BME280;11073;48.586;12.066;2022-09-12T08:47:31;96623.44;;;18.62;65.40
21821;BME280;11073;48.586;12.066;2022-09-12T08:50:08;96621.78;;;18.66;65.34
21821;BME280;11073;48.586;12.066;2022-09-12T08:52:41;96626.94;;;18.72;64.56
21821;BME280;11073;48.586;12.066;2022-09-12T08:55:23;96631.47;;;18.87;64.63
21821;BME280;11073;48.586;12.066;2022-09-12T08:57:53;96629.38;;;19.08;64.00
21821;BME280;11073;48.586;12.066;2022-09-12T09:00:22;96632.13;;;19.08;63.41
21821;BME280;11073;48.586;12.066;2022-09-12T09:06:03;96630.72;;;19.40;62.59
21821;BME280;11073;48.586;12.066;2022-09-12T09:08:46;96619.56;;;19.55;62.24
21821;BME280;11073;48.586;12.066;2022-09-12T09:11:28;96623.47;;;19.78;61.62
21821;BME280;11073;48.586;12.066;2022-09-12T09:14:14;96627.53;;;20.04;61.49
21821;BME280;11073;48.586;12.066;2022-09-12T09:17:08;96616.06;;;20.21;60.55
21821;BME280;11073;48.586;12.066;2022-09-12T09:19:41;96618.41;;;20.28;60.25
21821;BME280;11073;48.586;12.066;2022-09-12T09:22:22;96621.03;;;20.38;59.70
21821;BME280;11073;48.586;12.066;2022-09-12T09:24:58;96620.09;;;20.48;59.11
21821;BME280;11073;48.586;12.066;2022-09-12T09:27:32;96609.91;;;20.67;58.45
21821;BME280;11073;48.586;12.066;2022-09-12T09:30:12;96622.81;;;20.85;58.08
21821;BME280;11073;48.586;12.066;2022-09-12T09:32:43;96614.63;;;21.13;57.09
21821;BME280;11073;48.586;12.066;2022-09-12T09:35:17;96622.06;;;21.31;56.28
21821;BME280;11073;48.586;12.066;2022-09-12T09:37:57;96624.72;;;21.36;55.63
21821;BME280;11073;48.586;12.066;2022-09-12T09:40:36;96616.47;;;21.50;54.96
21821;BME280;11073;48.586;12.066;2022-09-12T09:43:17;96618.25;;;21.73;54.31
21821;BME280;11073;48.586;12.066;2022-09-12T09:45:49;96624.84;;;22.00;54.39
21821;BME280;11073;48.586;12.066;2022-09-12T09:48:21;96623.75;;;22.15;53.43
21821;BME280;11073;48.586;12.066;2022-09-12T09:50:51;96622.91;;;22.28;53.03
21821;BME280;11073;48.586;12.066;2022-09-12T09:53:32;96624.19;;;22.44;52.29
21821;BME280;11073;48.586;12.066;2022-09-12T09:56:08;96614.91;;;22.54;51.98
21821;BME280;11073;48.586;12.066;2022-09-12T09:58:39;96614.19;;;22.84;51.77
21821;BME280;11073;48.586;12.066;2022-09-12T10:01:13;96614.91;;;23.13;51.01
21821;BME280;11073;48.586;12.066;2022-09-12T10:03:48;96610.22;;;23.22;50.42
21821;BME280;11073;48.586;12.066;2022-09-12T10:06:28;96618.81;;;23.43;49.97
21821;BME280;11073;48.586;12.066;2022-09-12T10:09:20;96613.75;;;23.67;49.50
21821;BME280;11073;48.586;12.066;2022-09-12T10:11:52;96600.63;;;23.73;49.31
21821;BME280;11073;48.586;12.066;2022-09-12T10:14:33;96609.63;;;23.96;48.84
21821;BME280;11073;48.586;12.066;2022-09-12T10:17:21;96612.63;;;24.16;48.01
21821;BME280;11073;48.586;12.066;2022-09-12T10:19:51;96597.84;;;24.30;47.75
21821;BME280;11073;48.586;12.066;2022-09-12T10:22:45;96614.16;;;24.40;47.09
21821;BME280;11073;48.586;12.066;2022-09-12T10:25:17;96616.16;;;24.65;46.94
21821;BME280;11073;48.586;12.066;2022-09-12T10:27:52;96607.34;;;24.72;46.31
21821;BME280;11073;48.586;12.066;2022-09-12T10:30:22;96605.41;;;24.81;45.68
21821;BME280;11073;48.586;12.066;2022-09-12T10:32:58;96606.53;;;24.80;45.55
21821;BME280;11073;48.586;12.066;2022-09-12T10:35:42;96602.13;;;24.88;45.11
21821;BME280;11073;48.586;12.066;2022-09-12T10:38:16;96598.06;;;25.11;45.05
21821;BME280;11073;48.586;12.066;2022-09-12T10:40:55;96600.09;;;25.49;44.30
21821;BME280;11073;48.586;12.066;2022-09-12T10:43:27;96599.06;;;25.62;43.70
21821;BME280;11073;48.586;12.066;2022-09-12T10:46:09;96592.25;;;25.60;43.22
21821;BME280;11073;48.586;12.066;2022-09-12T10:48:49;96590.09;;;25.65;42.94
21821;BME280;11073;48.586;12.066;2022-09-12T10:51:26;96598.56;;;26.07;43.06
21821;BME280;11073;48.586;12.066;2022-09-12T10:53:57;96601.16;;;26.42;42.44
21821;BME280;11073;48.586;12.066;2022-09-12T10:56:29;96597.75;;;26.45;42.02
21821;BME280;11073;48.586;12.066;2022-09-12T10:59:07;96600.72;;;26.31;41.37
21821;BME280;11073;48.586;12.066;2022-09-12T11:01:48;96588.31;;;26.28;41.66
21821;BME280;11073;48.586;12.066;2022-09-12T11:04:28;96598.53;;;26.45;40.83
21821;BME280;11073;48.586;12.066;2022-09-12T11:07:13;96584.53;;;26.42;40.67
21821;BME280;11073;48.586;12.066;2022-09-12T11:09:52;96579.25;;;26.19;40.98
21821;BME280;11073;48.586;12.066;2022-09-12T11:12:31;96589.53;;;26.48;41.11
21821;BME280;11073;48.586;12.066;2022-09-12T11:15:15;96578.50;;;26.81;41.04
21821;BME280;11073;48.586;12.066;2022-09-12T11:17:57;96577.25;;;27.12;40.88
21821;BME280;11073;48.586;12.066;2022-09-12T11:20:37;96582.00;;;27.57;40.14
21821;BME280;11073;48.586;12.066;2022-09-12T11:23:42;96578.31;;;27.65;39.11
21821;BME280;11073;48.586;12.066;2022-09-12T11:26:25;96571.16;;;27.88;39.28
21821;BME280;11073;48.586;12.066;2022-09-12T11:29:10;96571.41;;;27.95;38.83
21821;BME280;11073;48.586;12.066;2022-09-12T11:31:54;96561.53;;;28.10;38.67
21821;BME280;11073;48.586;12.066;2022-09-12T11:34:35;96575.00;;;28.20;38.42
21821;BME280;11073;48.586;12.066;2022-09-12T11:40:12;96568.72;;;28.23;38.42
21821;BME280;11073;48.586;12.066;2022-09-12T11:42:48;96566.69;;;28.33;37.73
21821;BME280;11073;48.586;12.066;2022-09-12T11:45:24;96569.69;;;28.68;37.37
21821;BME280;11073;48.586;12.066;2022-09-12T11:48:00;96570.31;;;28.61;36.27
21821;BME280;11073;48.586;12.066;2022-09-12T11:50:32;96567.19;;;28.63;36.24
21821;BME280;11073;48.586;12.066;2022-09-12T11:53:04;96567.13;;;28.75;35.86
21821;BME280;11073;48.586;12.066;2022-09-12T11:55:46;96569.31;;;28.94;35.94
21821;BME280;11073;48.586;12.066;2022-09-12T11:58:19;96565.06;;;29.12;35.81
21821;BME280;11073;48.586;12.066;2022-09-12T12:00:53;96563.75;;;29.37;35.25
21821;BME280;11073;48.586;12.066;2022-09-12T12:03:29;96564.91;;;29.64;35.12
21821;BME280;11073;48.586;12.066;2022-09-12T12:06:03;96565.16;;;29.91;35.07
21821;BME280;11073;48.586;12.066;2022-09-12T12:08:37;96568.03;;;29.94;34.25
21821;BME280;11073;48.586;12.066;2022-09-12T12:11:07;96563.44;;;30.18;33.83
21821;BME280;11073;48.586;12.066;2022-09-12T12:13:40;96560.38;;;30.07;33.61
21821;BME280;11073;48.586;12.066;2022-09-12T12:16:17;96560.28;;;30.19;33.52
21821;BME280;11073;48.586;12.066;2022-09-12T12:18:53;96555.44;;;30.16;33.35
21821;BME280;11073;48.586;12.066;2022-09-12T12:21:37;96553.09;;;30.18;33.04
21821;BME280;11073;48.586;12.066;2022-09-12T12:24:16;96552.38;;;29.90;33.27
21821;BME280;11073;48.586;12.066;2022-09-12T12:26:56;96543.06;;;29.38;32.62
21821;BME280;11073;48.586;12.066;2022-09-12T12:29:36;96540.28;;;29.38;32.85
21821;BME280;11073;48.586;12.066;2022-09-12T12:32:34;96538.47;;;29.46;33.08
21821;BME280;11073;48.586;12.066;2022-09-12T12:35:37;96539.78;;;29.64;32.77
21821;BME280;11073;48.586;12.066;2022-09-12T12:38:28;96522.47;;;29.43;32.51
21821;BME280;11073;48.586;12.066;2022-09-12T12:44:48;96520.00;;;28.29;33.50
21821;BME280;11073;48.586;12.066;2022-09-12T12:47:19;96525.50;;;28.26;34.20
21821;BME280;11073;48.586;12.066;2022-09-12T12:49:51;96527.56;;;28.17;34.39
21821;BME280;11073;48.586;12.066;2022-09-12T12:52:20;96523.88;;;27.88;34.70
21821;BME280;11073;48.586;12.066;2022-09-12T12:54:52;96527.72;;;27.96;34.62
21821;BME280;11073;48.586;12.066;2022-09-12T12:57:29;96522.69;;;28.38;34.76
21821;BME280;11073;48.586;12.066;2022-09-12T13:00:03;96513.88;;;28.76;34.45
21821;BME280;11073;48.586;12.066;2022-09-12T13:02:37;96514.53;;;28.57;34.32
21821;BME280;11073;48.586;12.066;2022-09-12T13:05:16;96505.50;;;28.48;35.32
21821;BME280;11073;48.586;12.066;2022-09-12T13:07:52;96503.56;;;28.37;35.68
21821;BME280;11073;48.586;12.066;2022-09-12T13:10:23;96513.06;;;28.36;36.21
21821;BME280;11073;48.586;12.066;2022-09-12T13:12:58;96503.22;;;28.26;36.56
21821;BME280;11073;48.586;12.066;2022-09-12T13:15:51;96498.06;;;27.75;37.27
21821;BME280;11073;48.586;12.066;2022-09-12T13:18:24;96489.56;;;27.35;37.63
21821;BME280;11073;48.586;12.066;2022-09-12T13:21:01;96482.50;;;27.38;37.81
21821;BME280;11073;48.586;12.066;2022-09-12T13:23:35;96487.47;;;27.44;38.17
21821;BME280;11073;48.586;12.066;2022-09-12T13:26:09;96489.09;;;27.58;38.21
21821;BME280;11073;48.586;12.066;2022-09-12T13:28:38;96474.28;;;27.54;38.03
21821;BME280;11073;48.586;12.066;2022-09-12T13:31:13;96482.84;;;27.48;38.38
21821;BME280;11073;48.586;12.066;2022-09-12T13:33:46;96471.50;;;27.41;38.51